createdAt,value
2023-05-16T00:01:41.951Z,4.63
2023-05-16T00:06:45.941Z,4.78
2023-05-16T00:11:51.804Z,4.72
2023-05-16T00:16:57.772Z,5.15
2023-05-16T00:22:01.902Z,4.35
2023-05-16T00:27:08.042Z,4.93
2023-05-16T00:32:12.077Z,5.30
2023-05-16T00:37:17.303Z,4.80
2023-05-16T00:42:22.677Z,5.65
2023-05-16T00:47:26.715Z,5.00
2023-05-16T00:52:31.031Z,4.95
2023-05-16T00:57:36.314Z,4.75
2023-05-16T01:02:40.355Z,5.15
2023-05-16T01:07:44.650Z,5.35
2023-05-16T01:13:02.477Z,5.13
2023-05-16T01:18:13.362Z,5.00
2023-05-16T01:23:35.423Z,5.40
2023-05-16T01:28:42.450Z,5.50
2023-05-16T01:33:46.756Z,5.57
2023-05-16T01:39:02.736Z,4.82
2023-05-16T01:44:17.985Z,5.47
2023-05-16T01:49:31.163Z,4.10
2023-05-16T01:54:39.539Z,4.88
2023-05-16T01:59:46.834Z,5.40
2023-05-16T02:04:51.703Z,4.80
2023-05-16T02:09:55.804Z,4.63
2023-05-16T02:15:01.234Z,4.85
2023-05-16T02:20:07.248Z,4.90
2023-05-16T02:25:11.588Z,5.07
2023-05-16T02:30:17.965Z,4.50
2023-05-16T02:35:22.928Z,5.50
2023-05-16T02:40:26.842Z,5.97
2023-05-16T02:45:32.667Z,5.90
2023-05-16T02:50:37.607Z,6.18
2023-05-16T02:55:42.097Z,6.37
2023-05-16T03:00:47.707Z,7.18
2023-05-16T03:11:00.928Z,6.50
2023-05-16T03:16:10.710Z,6.05
2023-05-16T03:21:17.893Z,6.13
2023-05-16T03:26:25.055Z,7.30
2023-05-16T03:31:36.554Z,8.13
2023-05-16T03:36:44.919Z,7.43
2023-05-16T03:41:52.629Z,6.80
2023-05-16T03:47:00.256Z,6.47
2023-05-16T03:52:06.729Z,7.10
2023-05-16T04:02:20.502Z,7.13
2023-05-16T04:07:27.855Z,7.30
2023-05-16T04:12:34.711Z,7.50
2023-05-16T04:17:43.148Z,6.78
2023-05-16T04:22:50.579Z,6.10
2023-05-16T04:27:58.017Z,5.72
2023-05-16T04:33:06.847Z,6.35
2023-05-16T04:38:13.446Z,5.75
2023-05-16T04:48:28.432Z,5.82
2023-05-16T04:53:36.235Z,6.00
2023-05-16T04:58:43.693Z,5.32
2023-05-16T05:03:49.877Z,4.53
2023-05-16T05:08:56.599Z,4.93
2023-05-16T05:14:04.239Z,4.88
2023-05-16T05:19:11.463Z,4.47
2023-05-16T05:24:17.697Z,3.58
2023-05-16T05:29:25.003Z,3.65
2023-05-16T05:34:33.827Z,3.75
2023-05-16T05:39:40.785Z,4.18
2023-05-16T05:44:47.634Z,4.10
2023-05-16T05:49:56.181Z,4.53
2023-05-16T05:55:03.519Z,5.40
2023-05-16T06:00:12.194Z,4.25
2023-05-16T06:05:19.234Z,4.20
2023-05-16T06:10:24.331Z,3.72
2023-05-16T06:20:37.015Z,3.15
2023-05-16T06:25:43.354Z,4.53
2023-05-16T06:30:52.457Z,3.45
2023-05-16T06:36:00.656Z,3.78
2023-05-16T06:41:07.916Z,2.78
2023-05-16T06:46:15.544Z,2.67
2023-05-16T06:51:23.641Z,2.53
2023-05-16T06:56:32.098Z,2.88
2023-05-16T07:01:39.713Z,3.40
2023-05-16T07:06:48.494Z,2.90
2023-05-16T07:11:54.503Z,2.67
2023-05-16T07:17:01.402Z,3.05
2023-05-16T07:22:09.443Z,2.28
2023-05-16T07:27:16.418Z,2.45
2023-05-16T07:32:22.580Z,2.20
2023-05-16T07:37:29.900Z,2.30
2023-05-16T07:42:37.424Z,2.50
2023-05-16T07:47:44.813Z,2.63
2023-05-16T07:52:53.826Z,3.10
2023-05-16T07:58:01.464Z,2.90
2023-05-16T08:03:09.041Z,2.67
2023-05-16T08:08:19.126Z,2.47
2023-05-16T08:13:29.685Z,2.35
2023-05-16T08:18:35.781Z,2.50
2023-05-16T08:28:50.778Z,2.00
2023-05-16T08:33:55.785Z,2.38
2023-05-16T08:39:03.915Z,2.70
2023-05-16T08:44:13.778Z,2.38
2023-05-16T08:49:21.419Z,2.30
2023-05-16T08:54:30.451Z,2.20
2023-05-16T08:59:38.138Z,2.53
2023-05-16T09:04:47.572Z,2.78
2023-05-16T09:09:55.269Z,2.60
2023-05-16T09:15:04.401Z,2.40
2023-05-16T09:20:12.411Z,2.40
2023-05-16T09:25:30.118Z,2.50
2023-05-16T09:30:39.964Z,2.95
2023-05-16T09:35:47.245Z,2.80
2023-05-16T09:40:55.947Z,2.15
2023-05-16T09:46:04.156Z,2.78
2023-05-16T09:51:11.041Z,2.30
2023-05-16T09:56:19.948Z,2.50
2023-05-16T10:01:29.115Z,3.30
2023-05-16T10:06:34.618Z,3.88
2023-05-16T10:11:41.569Z,3.90
2023-05-16T10:16:50.492Z,5.15
2023-05-16T10:22:02.750Z,2.40
2023-05-16T10:27:12.886Z,2.30
2023-05-16T10:32:21.300Z,2.50
2023-05-16T10:37:30.083Z,2.40
2023-05-16T10:42:38.465Z,2.25
2023-05-16T10:47:53.844Z,2.28
2023-05-16T10:53:13.206Z,2.17
2023-05-16T10:58:41.574Z,2.40
2023-05-16T11:04:10.507Z,2.63
2023-05-16T11:09:27.503Z,2.30
2023-05-16T11:14:44.321Z,2.30
2023-05-16T11:19:51.135Z,2.78
2023-05-16T11:25:03.461Z,6.07
2023-05-16T11:30:18.186Z,2.70
2023-05-16T11:35:24.367Z,5.70
2023-05-16T11:40:29.625Z,3.00
2023-05-16T11:45:37.216Z,3.05
2023-05-16T11:50:42.809Z,3.35
2023-05-16T12:01:02.315Z,2.40
2023-05-16T12:06:07.313Z,2.83
2023-05-16T12:11:12.541Z,2.80
2023-05-16T12:16:18.635Z,1.92
2023-05-16T12:21:23.612Z,2.20
2023-05-16T12:26:30.972Z,2.30
2023-05-16T12:31:42.069Z,2.60
2023-05-16T12:36:54.067Z,2.50
2023-05-16T12:42:06.663Z,2.47
2023-05-16T12:47:16.397Z,2.63
2023-05-16T12:52:21.915Z,2.40
2023-05-16T12:57:26.454Z,3.05
2023-05-16T13:02:33.607Z,9.90
2023-05-16T13:07:40.648Z,3.40
2023-05-16T13:12:46.249Z,5.03
2023-05-16T13:17:53.341Z,3.25
2023-05-16T13:23:00.065Z,2.83
2023-05-16T13:28:06.970Z,3.00
2023-05-16T13:33:14.175Z,2.80
2023-05-16T13:38:19.297Z,3.08
2023-05-16T13:43:23.620Z,2.90
2023-05-16T13:48:30.839Z,2.70
2023-05-16T13:53:39.755Z,2.35
2023-05-16T14:03:59.442Z,2.50
2023-05-16T14:09:04.617Z,2.95
2023-05-16T14:14:08.911Z,2.67
2023-05-16T14:19:17.281Z,2.50
2023-05-16T14:24:22.650Z,3.40
2023-05-16T14:29:27.046Z,3.42
2023-05-16T14:34:33.719Z,3.13
2023-05-16T14:39:37.999Z,3.10
2023-05-16T14:44:42.087Z,3.28
2023-05-16T14:49:47.593Z,3.85
2023-05-16T14:59:55.599Z,3.13
2023-05-16T15:05:01.365Z,3.83
2023-05-16T15:10:07.018Z,3.88
2023-05-16T15:15:14.187Z,3.28
2023-05-16T15:20:23.455Z,3.40
2023-05-16T15:25:28.053Z,3.47
2023-05-16T15:30:33.573Z,3.50
2023-05-16T15:35:40.895Z,3.60
2023-05-16T15:40:47.068Z,4.55
2023-05-16T15:45:53.699Z,4.03
2023-05-16T15:50:59.860Z,4.18
2023-05-16T15:56:05.069Z,4.40
2023-05-16T16:01:09.493Z,4.13
2023-05-16T16:06:15.239Z,6.80
2023-05-16T16:11:21.556Z,5.88
2023-05-16T16:16:25.890Z,4.40
2023-05-16T16:21:33.510Z,5.20
2023-05-16T16:26:38.421Z,6.28
2023-05-16T16:31:42.539Z,6.60
2023-05-16T16:36:48.106Z,7.97
2023-05-16T16:41:54.064Z,5.72
2023-05-16T16:46:59.763Z,5.93
2023-05-16T16:57:11.494Z,5.25
2023-05-16T17:02:15.860Z,5.78
2023-05-16T17:07:21.646Z,6.80
2023-05-16T17:17:32.661Z,7.30
2023-05-16T17:22:38.213Z,7.82
2023-05-16T17:27:43.297Z,8.85
2023-05-16T17:32:47.723Z,10.80
2023-05-16T17:37:53.060Z,9.27
2023-05-16T17:42:57.220Z,9.10
2023-05-16T17:48:01.213Z,7.13
2023-05-16T17:53:07.830Z,6.63
2023-05-16T17:58:11.915Z,6.97
2023-05-16T18:03:16.950Z,6.90
2023-05-16T18:08:22.350Z,6.80
2023-05-16T18:13:26.403Z,7.07
2023-05-16T18:18:30.693Z,7.45
2023-05-16T18:23:39.505Z,8.02
2023-05-16T18:28:43.580Z,8.95
2023-05-16T18:33:47.787Z,9.65
2023-05-16T18:38:53.370Z,9.25
2023-05-16T18:43:57.406Z,9.45
2023-05-16T18:49:01.929Z,10.38
2023-05-16T18:54:07.524Z,10.23
2023-05-16T19:04:15.434Z,10.05
2023-05-16T19:09:20.827Z,9.40
2023-05-16T19:14:27.006Z,10.30
2023-05-16T19:19:31.376Z,10.25
2023-05-16T19:24:36.930Z,9.88
2023-05-16T19:29:40.905Z,10.68
2023-05-16T19:34:45.057Z,9.90
2023-05-16T19:39:50.466Z,9.98
2023-05-16T19:44:54.571Z,10.85
2023-05-16T19:49:58.569Z,10.10
2023-05-16T19:55:04.739Z,9.57
2023-05-16T20:00:09.933Z,9.93
2023-05-16T20:05:19.978Z,9.93
2023-05-16T20:10:25.913Z,9.75
2023-05-16T20:20:39.171Z,10.63
2023-05-16T20:25:44.999Z,10.40
2023-05-16T20:30:49.302Z,9.65
2023-05-16T20:35:53.603Z,9.88
2023-05-16T20:40:59.339Z,9.75
2023-05-16T20:46:10.085Z,9.38
2023-05-16T20:51:14.243Z,8.98
2023-05-16T20:56:22.484Z,9.48
2023-05-16T21:01:28.002Z,9.52
2023-05-16T21:06:34.976Z,9.52
2023-05-16T21:11:40.499Z,9.10
2023-05-16T21:16:44.805Z,9.32
2023-05-16T21:21:51.198Z,11.40
2023-05-16T21:27:17.759Z,12.63
2023-05-16T21:32:23.403Z,15.82
2023-05-16T21:37:28.113Z,15.07
2023-05-16T21:42:47.953Z,15.27
2023-05-16T21:47:57.362Z,12.32
2023-05-16T21:53:01.600Z,11.43
2023-05-16T21:58:07.336Z,12.80
2023-05-16T22:03:11.951Z,12.02
2023-05-16T22:08:16.407Z,11.07
2023-05-16T22:13:22.225Z,11.80
2023-05-16T22:18:26.454Z,12.13
2023-05-16T22:23:31.181Z,12.13
2023-05-16T22:28:36.952Z,12.00
2023-05-16T22:33:41.179Z,11.57
2023-05-16T22:38:45.864Z,9.65
2023-05-16T22:43:51.967Z,11.75
2023-05-16T22:48:57.818Z,12.40
2023-05-16T22:54:02.075Z,12.20
2023-05-16T22:59:08.020Z,12.75
2023-05-16T23:09:16.206Z,12.93
2023-05-16T23:14:21.997Z,15.27
2023-05-16T23:19:26.291Z,14.07
2023-05-16T23:24:31.013Z,13.07
2023-05-16T23:29:36.728Z,12.15
2023-05-16T23:39:46.185Z,9.57
2023-05-16T23:44:51.869Z,8.93
2023-05-16T23:49:56.207Z,8.57
2023-05-16T23:55:00.360Z,8.80
